createdAt,value
2019-06-01T00:00:35.122Z,98725.83
2019-06-01T00:03:06.144Z,98729.06
2019-06-01T00:05:36.532Z,98727.00
2019-06-01T00:08:07.947Z,98723.47
2019-06-01T00:10:38.971Z,98723.70
2019-06-01T00:13:16.078Z,98717.80
2019-06-01T00:15:48.280Z,98722.41
2019-06-01T00:18:19.550Z,98718.61
2019-06-01T00:20:54.928Z,98723.68
2019-06-01T00:23:26.142Z,98725.45
2019-06-01T00:25:57.080Z,98720.04
2019-06-01T00:28:28.254Z,98719.70
2019-06-01T00:30:59.232Z,98712.98
2019-06-01T00:33:30.378Z,98708.00
2019-06-01T00:36:01.806Z,98708.68
2019-06-01T00:38:32.955Z,98703.95
2019-06-01T00:41:04.206Z,98703.56
2019-06-01T00:43:34.234Z,98711.77
2019-06-01T00:46:05.567Z,98704.92
2019-06-01T00:48:36.544Z,98707.27
2019-06-01T00:51:07.814Z,98710.27
2019-06-01T00:53:38.918Z,98713.56
2019-06-01T00:56:10.082Z,98709.98
2019-06-01T00:58:41.067Z,98711.86
2019-06-01T01:01:12.898Z,98717.31
2019-06-01T01:03:44.025Z,98715.91
2019-06-01T01:06:17.586Z,98711.47
2019-06-01T01:08:49.067Z,98711.02
2019-06-01T01:11:20.426Z,98711.86
2019-06-01T01:13:51.384Z,98715.91
2019-06-01T01:16:21.470Z,98713.90
2019-06-01T01:18:53.776Z,98709.24
2019-06-01T01:21:24.787Z,98708.75
2019-06-01T01:23:56.720Z,98708.22
2019-06-01T01:26:30.087Z,98705.53
2019-06-01T01:29:01.339Z,98704.09
2019-06-01T01:31:32.339Z,98706.46
2019-06-01T01:34:03.743Z,98711.75
2019-06-01T01:36:34.669Z,98712.03
2019-06-01T01:39:07.904Z,98707.19
2019-06-01T01:41:38.807Z,98709.62
2019-06-01T01:44:10.057Z,98707.92
2019-06-01T01:46:40.975Z,98706.65
2019-06-01T01:49:12.241Z,98711.86
2019-06-01T01:51:43.257Z,98702.12
2019-06-01T01:54:13.373Z,98710.67
2019-06-01T01:56:44.547Z,98707.02
2019-06-01T01:59:15.480Z,98708.03
2019-06-01T02:01:46.669Z,98710.79
2019-06-01T02:04:17.569Z,98710.16
2019-06-01T02:06:48.850Z,98711.21
2019-06-01T02:09:19.894Z,98708.70
2019-06-01T02:11:51.386Z,98707.55
2019-06-01T02:14:22.449Z,98708.39
2019-06-01T02:16:53.934Z,98707.94
2019-06-01T02:19:27.874Z,98708.10
2019-06-01T02:21:59.061Z,98708.56
2019-06-01T02:24:30.045Z,98708.16
2019-06-01T02:27:01.320Z,98702.62
2019-06-01T02:29:32.596Z,98702.47
2019-06-01T02:32:04.705Z,98697.91
2019-06-01T02:34:36.422Z,98695.84
2019-06-01T02:37:07.351Z,98694.69
2019-06-01T02:39:38.765Z,98691.63
2019-06-01T02:42:11.388Z,98696.00
2019-06-01T02:44:42.469Z,98693.58
2019-06-01T02:47:13.384Z,98690.27
2019-06-01T02:49:44.810Z,98689.41
2019-06-01T02:52:15.711Z,98693.28
2019-06-01T02:54:47.068Z,98694.39
2019-06-01T02:57:18.030Z,98688.96
2019-06-01T02:59:48.224Z,98692.32
2019-06-01T03:02:23.847Z,98688.70
2019-06-01T03:04:55.503Z,98694.94
2019-06-01T03:07:29.743Z,98697.05
2019-06-01T03:10:03.130Z,98690.01
2019-06-01T03:12:37.404Z,98691.42
2019-06-01T03:15:08.651Z,98689.80
2019-06-01T03:17:41.906Z,98687.23
2019-06-01T03:20:13.309Z,98689.50
2019-06-01T03:22:46.099Z,98691.84
2019-06-01T03:25:17.113Z,98690.14
2019-06-01T03:27:51.592Z,98689.70
2019-06-01T03:30:45.341Z,98693.22
2019-06-01T03:33:15.521Z,98693.97
2019-06-01T03:35:46.752Z,98688.64
2019-06-01T03:38:17.971Z,98695.28
2019-06-01T03:40:48.959Z,98694.53
2019-06-01T03:43:19.460Z,98695.38
2019-06-01T03:45:50.645Z,98689.30
2019-06-01T03:48:21.607Z,98694.08
2019-06-01T03:50:52.806Z,98694.48
2019-06-01T03:53:23.694Z,98694.77
2019-06-01T03:55:54.784Z,98693.37
2019-06-01T03:58:25.852Z,98691.92
2019-06-01T04:00:57.054Z,98693.47
2019-06-01T04:03:28.028Z,98690.72
2019-06-01T04:05:59.266Z,98692.72
2019-06-01T04:08:30.278Z,98697.30
2019-06-01T04:11:01.992Z,98696.60
2019-06-01T04:13:33.110Z,98700.67
2019-06-01T04:16:03.744Z,98700.91
2019-06-01T04:18:35.143Z,98699.25
2019-06-01T04:21:06.200Z,98705.53
2019-06-01T04:23:37.382Z,98702.86
2019-06-01T04:26:08.396Z,98706.47
2019-06-01T04:28:39.474Z,98702.95
2019-06-01T04:31:10.875Z,98706.05
2019-06-01T04:33:42.183Z,98701.69
2019-06-01T04:36:13.179Z,98707.78
2019-06-01T04:38:44.350Z,98696.20
2019-06-01T04:41:15.350Z,98703.27
2019-06-01T04:43:46.894Z,98702.09
2019-06-01T04:46:17.826Z,98702.70
2019-06-01T04:48:48.974Z,98706.35
2019-06-01T04:51:20.018Z,98704.68
2019-06-01T04:53:50.085Z,98701.21
2019-06-01T04:56:21.163Z,98697.92
2019-06-01T04:58:52.157Z,98695.30
2019-06-01T05:01:23.238Z,98698.73
2019-06-01T05:03:54.177Z,98697.11
2019-06-01T05:06:25.356Z,98693.30
2019-06-01T05:08:56.430Z,98692.39
2019-06-01T05:11:27.817Z,98703.70
2019-06-01T05:13:58.814Z,98694.80
2019-06-01T05:16:30.099Z,98701.12
2019-06-01T05:19:01.048Z,98701.68
2019-06-01T05:21:32.250Z,98701.42
2019-06-01T05:24:03.165Z,98703.52
2019-06-01T05:26:33.280Z,98701.38
2019-06-01T05:29:04.626Z,98705.34
2019-06-01T05:31:35.623Z,98707.56
2019-06-01T05:34:07.718Z,98705.03
2019-06-01T05:36:38.680Z,98698.55
2019-06-01T05:39:10.303Z,98697.05
2019-06-01T05:41:41.495Z,98696.81
2019-06-01T05:44:12.926Z,98703.84
2019-06-01T05:46:43.928Z,98704.52
2019-06-01T05:49:16.417Z,98705.44
2019-06-01T05:51:47.650Z,98703.10
2019-06-01T05:54:19.036Z,98701.08
2019-06-01T05:56:55.941Z,98705.70
2019-06-01T05:59:26.922Z,98706.09
2019-06-01T06:02:00.354Z,98707.13
2019-06-01T06:04:31.768Z,98714.92
2019-06-01T06:07:05.717Z,98710.27
2019-06-01T06:09:38.357Z,98712.30
2019-06-01T06:12:11.130Z,98708.60
2019-06-01T06:14:42.233Z,98708.86
2019-06-01T06:17:15.775Z,98713.31
2019-06-01T06:19:47.709Z,98725.80
2019-06-01T06:22:19.029Z,98726.22
2019-06-01T06:24:52.594Z,98727.92
2019-06-01T06:27:24.559Z,98727.58
2019-06-01T06:29:55.482Z,98735.02
2019-06-01T06:32:26.793Z,98724.81
2019-06-01T06:34:57.778Z,98729.85
2019-06-01T06:37:28.177Z,98729.38
2019-06-01T06:39:59.677Z,98730.84
2019-06-01T06:42:33.597Z,98733.18
2019-06-01T06:45:06.503Z,98734.02
2019-06-01T06:47:37.509Z,98733.81
2019-06-01T06:50:10.456Z,98740.20
2019-06-01T06:52:41.428Z,98736.13
2019-06-01T06:55:12.634Z,98742.80
2019-06-01T06:57:43.696Z,98739.16
2019-06-01T07:00:16.277Z,98736.44
2019-06-01T07:02:47.293Z,98733.94
2019-06-01T07:05:21.335Z,98732.06
2019-06-01T07:07:54.164Z,98727.08
2019-06-01T07:10:26.231Z,98729.86
2019-06-01T07:12:57.362Z,98730.02
2019-06-01T07:15:27.698Z,98734.84
2019-06-01T07:17:59.074Z,98729.88
2019-06-01T07:20:30.045Z,98723.38
2019-06-01T07:23:01.193Z,98728.27
2019-06-01T07:25:33.036Z,98721.41
2019-06-01T07:28:04.690Z,98717.22
2019-06-01T07:30:49.821Z,98717.20
2019-06-01T07:33:11.551Z,98714.98
2019-06-01T07:35:42.435Z,98709.98
2019-06-01T07:38:13.850Z,98715.92
2019-06-01T07:40:44.832Z,98716.81
2019-06-01T07:43:16.013Z,98711.30
2019-06-01T07:45:47.012Z,98710.11
2019-06-01T07:48:17.552Z,98705.73
2019-06-01T07:50:48.862Z,98703.29
2019-06-01T07:53:20.966Z,98707.13
2019-06-01T07:55:55.169Z,98707.13
2019-06-01T07:58:33.145Z,98707.50
2019-06-01T08:01:04.432Z,98699.11
2019-06-01T08:03:35.357Z,98696.55
2019-06-01T08:06:06.555Z,98683.91
2019-06-01T08:08:37.725Z,98683.91
2019-06-01T08:11:08.990Z,98680.71
2019-06-01T08:13:40.165Z,98680.71
2019-06-01T08:16:11.491Z,98694.05
2019-06-01T08:18:43.218Z,98694.05
2019-06-01T08:21:14.474Z,98681.23
2019-06-01T08:23:45.688Z,98681.23
2019-06-01T08:26:19.840Z,98676.69
2019-06-01T08:28:48.871Z,98676.69
2019-06-01T08:31:22.952Z,98684.73
2019-06-01T08:33:54.376Z,98679.45
2019-06-01T08:36:25.430Z,98664.88
2019-06-01T08:38:56.740Z,98666.17
2019-06-01T08:41:36.759Z,98666.17
2019-06-01T08:44:08.171Z,98670.26
2019-06-01T08:46:42.638Z,98673.75
2019-06-01T08:49:13.937Z,98669.74
2019-06-01T08:51:46.694Z,98666.77
2019-06-01T08:54:18.089Z,98666.16
2019-06-01T08:56:49.287Z,98661.00
2019-06-01T08:59:21.046Z,98658.40
2019-06-01T09:01:52.210Z,98655.56
2019-06-01T09:04:22.530Z,98655.88
2019-06-01T09:06:54.022Z,98647.17
2019-06-01T09:09:25.276Z,98649.19
2019-06-01T09:11:56.520Z,98653.73
2019-06-01T09:14:29.200Z,98654.59
2019-06-01T09:17:03.545Z,98648.59
2019-06-01T09:19:35.754Z,98652.95
2019-06-01T09:22:07.144Z,98654.11
2019-06-01T09:24:38.291Z,98653.70
2019-06-01T09:27:09.521Z,98656.20
2019-06-01T09:29:44.550Z,98653.28
2019-06-01T09:32:13.575Z,98637.14
2019-06-01T09:34:44.624Z,98637.14
2019-06-01T09:37:14.898Z,98644.67
2019-06-01T09:39:46.134Z,98644.67
2019-06-01T09:42:17.127Z,98634.50
2019-06-01T09:44:48.332Z,98634.50
2019-06-01T09:47:19.470Z,98633.39
2019-06-01T09:49:51.397Z,98629.77
2019-06-01T09:52:22.520Z,98641.95
2019-06-01T09:54:53.842Z,98641.95
2019-06-01T09:57:27.942Z,98638.98
2019-06-01T09:59:59.352Z,98638.53
2019-06-01T10:02:34.115Z,98645.23
2019-06-01T10:05:05.992Z,98637.00
2019-06-01T10:07:39.089Z,98639.70
2019-06-01T10:10:13.024Z,98634.59
2019-06-01T10:12:47.666Z,98633.34
2019-06-01T10:15:18.037Z,98638.84
2019-06-01T10:17:49.567Z,98633.25
2019-06-01T10:20:20.688Z,98634.50
2019-06-01T10:22:51.936Z,98639.03
2019-06-01T10:25:23.019Z,98628.41
2019-06-01T10:27:54.284Z,98627.78
2019-06-01T10:30:28.319Z,98625.80
2019-06-01T10:32:59.640Z,98632.84
2019-06-01T10:35:30.807Z,98622.74
2019-06-01T10:38:02.082Z,98622.74
2019-06-01T10:40:33.427Z,98634.39
2019-06-01T10:43:05.062Z,98632.24
2019-06-01T10:45:36.207Z,98627.05
2019-06-01T10:48:06.517Z,98628.11
2019-06-01T10:50:38.474Z,98626.63
2019-06-01T10:53:09.642Z,98622.66
2019-06-01T10:55:42.356Z,98618.18
2019-06-01T10:58:13.577Z,98615.71
2019-06-01T11:00:50.609Z,98617.14
2019-06-01T11:03:17.726Z,98613.47
2019-06-01T11:05:50.275Z,98612.42
2019-06-01T11:08:21.295Z,98610.91
2019-06-01T11:10:52.602Z,98608.20
2019-06-01T11:13:23.758Z,98597.27
2019-06-01T11:15:55.173Z,98598.43
2019-06-01T11:18:26.715Z,98599.89
2019-06-01T11:20:57.047Z,98590.48
2019-06-01T11:23:28.203Z,98586.66
2019-06-01T11:25:59.347Z,98593.84
2019-06-01T11:28:30.705Z,98590.95
2019-06-01T11:31:01.933Z,98582.05
2019-06-01T11:33:34.136Z,98579.42
2019-06-01T11:36:05.702Z,98577.92
2019-06-01T11:38:38.365Z,98577.55
2019-06-01T11:44:19.507Z,98563.52
2019-06-01T11:46:50.974Z,98560.16
2019-06-01T11:49:22.325Z,98556.97
2019-06-01T11:51:53.282Z,98552.58
2019-06-01T11:54:24.648Z,98553.78
2019-06-01T11:56:55.702Z,98543.38
2019-06-01T11:59:26.982Z,98537.55
2019-06-01T12:01:58.347Z,98539.83
2019-06-01T12:04:28.566Z,98532.88
2019-06-01T12:07:16.354Z,98534.49
2019-06-01T12:09:32.579Z,98538.89
2019-06-01T12:12:04.017Z,98532.54
2019-06-01T12:14:36.308Z,98533.07
2019-06-01T12:17:07.792Z,98532.67
2019-06-01T12:19:38.870Z,98529.52
2019-06-01T12:22:10.047Z,98525.20
2019-06-01T12:24:41.109Z,98515.33
2019-06-01T12:27:12.412Z,98507.47
2019-06-01T12:29:56.059Z,98506.92
2019-06-01T12:32:27.377Z,98506.29
2019-06-01T12:35:02.823Z,98514.86
2019-06-01T12:37:45.534Z,98510.17
2019-06-01T12:40:07.576Z,98500.97
2019-06-01T12:42:37.090Z,98498.06
2019-06-01T12:45:10.304Z,98497.33
2019-06-01T12:47:41.801Z,98487.56
2019-06-01T12:50:13.407Z,98494.64
2019-06-01T12:52:59.520Z,98490.63
2019-06-01T12:55:40.540Z,98491.45
2019-06-01T12:58:11.828Z,98488.20
2019-06-01T13:00:44.201Z,98490.48
2019-06-01T13:03:17.194Z,98487.13
2019-06-01T13:05:49.670Z,98486.41
2019-06-01T13:08:21.134Z,98481.20
2019-06-01T13:10:52.601Z,98486.19
2019-06-01T13:13:25.163Z,98477.54
2019-06-01T13:15:56.469Z,98477.56
2019-06-01T13:18:39.251Z,98477.48
2019-06-01T13:27:39.981Z,98459.20
2019-06-01T13:33:57.016Z,98453.37
2019-06-01T13:39:18.965Z,98439.41
2019-06-01T13:54:57.070Z,98442.37
2019-06-01T13:57:34.744Z,98437.00
2019-06-01T14:00:10.075Z,98432.95
2019-06-01T14:02:41.243Z,98432.83
2019-06-01T14:05:12.725Z,98437.06
2019-06-01T14:07:45.146Z,98432.03
2019-06-01T14:10:16.932Z,98436.28
2019-06-01T14:12:49.318Z,98430.28
2019-06-01T14:15:19.885Z,98420.18
2019-06-01T14:17:52.320Z,98415.87
2019-06-01T14:20:23.565Z,98418.69
2019-06-01T14:22:56.009Z,98425.23
2019-06-01T14:25:27.196Z,98406.09
2019-06-01T14:27:58.621Z,98416.87
2019-06-01T14:30:29.699Z,98406.95
2019-06-01T14:33:00.966Z,98403.59
2019-06-01T14:35:35.492Z,98410.90
2019-06-01T14:38:05.110Z,98401.80
2019-06-01T14:40:36.256Z,98401.05
2019-06-01T14:43:07.635Z,98399.75
2019-06-01T14:45:38.706Z,98392.41
2019-06-01T14:48:08.846Z,98392.73
2019-06-01T14:50:40.217Z,98391.33
2019-06-01T14:53:11.367Z,98394.34
2019-06-01T14:55:42.528Z,98390.87
2019-06-01T14:58:13.505Z,98385.73
2019-06-01T15:00:44.674Z,98386.23
2019-06-01T15:03:15.704Z,98381.56
2019-06-01T15:05:48.171Z,98384.95
2019-06-01T15:08:19.333Z,98378.59
2019-06-01T15:10:50.848Z,98387.45
2019-06-01T15:13:22.197Z,98373.44
2019-06-01T15:15:53.581Z,98376.75
2019-06-01T15:18:24.807Z,98371.28
2019-06-01T15:20:56.235Z,98369.86
2019-06-01T15:23:27.315Z,98368.69
2019-06-01T15:25:58.495Z,98370.03
2019-06-01T15:28:29.913Z,98361.04
2019-06-01T15:31:01.074Z,98358.94
2019-06-01T15:33:33.047Z,98362.89
2019-06-01T15:36:04.945Z,98359.20
2019-06-01T15:38:36.292Z,98359.63
2019-06-01T15:41:07.419Z,98353.33
2019-06-01T15:43:38.752Z,98351.48
2019-06-01T15:46:09.797Z,98350.12
2019-06-01T15:48:41.215Z,98346.72
2019-06-01T15:51:12.368Z,98344.39
2019-06-01T15:53:43.642Z,98338.83
2019-06-01T15:56:14.806Z,98328.46
2019-06-01T15:58:52.941Z,98343.66
2019-06-01T16:01:18.069Z,98330.17
2019-06-01T16:03:49.171Z,98333.31
2019-06-01T16:06:20.401Z,98328.23
2019-06-01T16:08:51.530Z,98325.15
2019-06-01T16:11:22.669Z,98330.14
2019-06-01T16:13:53.735Z,98328.17
2019-06-01T16:16:25.169Z,98331.61
2019-06-01T16:18:59.914Z,98326.59
2019-06-01T16:21:29.340Z,98322.64
2019-06-01T16:24:00.484Z,98327.92
2019-06-01T16:26:31.796Z,98325.80
2019-06-01T16:29:04.980Z,98325.83
2019-06-01T16:31:35.419Z,98326.27
2019-06-01T16:34:06.705Z,98329.58
2019-06-01T16:36:37.783Z,98320.48
2019-06-01T16:39:09.933Z,98316.38
2019-06-01T16:41:40.978Z,98323.36
2019-06-01T16:44:12.303Z,98303.65
2019-06-01T16:46:43.374Z,98310.02
2019-06-01T16:49:14.807Z,98307.72
2019-06-01T16:51:59.088Z,98308.52
2019-06-01T16:54:30.668Z,98305.00
2019-06-01T16:57:02.897Z,98300.59
2019-06-01T16:59:34.534Z,98300.80
2019-06-01T17:02:08.953Z,98302.47
2019-06-01T17:04:42.334Z,98300.11
2019-06-01T17:07:16.445Z,98298.94
2019-06-01T17:09:46.708Z,98297.09
2019-06-01T17:12:18.039Z,98293.87
2019-06-01T17:14:49.158Z,98304.69
2019-06-01T17:17:20.500Z,98291.34
2019-06-01T17:19:51.630Z,98300.63
2019-06-01T17:22:23.018Z,98299.33
2019-06-01T17:25:03.779Z,98292.38
2019-06-01T17:27:35.017Z,98294.34
2019-06-01T17:30:09.921Z,98296.41
2019-06-01T17:32:39.834Z,98291.35
2019-06-01T17:35:12.485Z,98294.14
2019-06-01T17:37:43.685Z,98294.34
2019-06-01T17:40:14.908Z,98292.45
2019-06-01T17:42:46.171Z,98291.45
2019-06-01T17:45:17.442Z,98287.66
2019-06-01T17:47:47.798Z,98290.61
2019-06-01T17:50:21.385Z,98290.61
2019-06-01T17:52:52.589Z,98287.26
2019-06-01T17:55:29.522Z,98281.92
2019-06-01T17:58:01.507Z,98281.59
2019-06-01T18:00:33.910Z,98280.06
2019-06-01T18:03:06.305Z,98280.41
2019-06-01T18:05:38.719Z,98282.19
2019-06-01T18:08:10.316Z,98283.01
2019-06-01T18:10:53.468Z,98274.39
2019-06-01T18:13:14.869Z,98285.08
2019-06-01T18:15:49.856Z,98271.63
2019-06-01T18:18:19.036Z,98268.91
2019-06-01T18:20:50.207Z,98268.91
2019-06-01T18:23:21.261Z,98282.84
2019-06-01T18:25:52.470Z,98276.72
2019-06-01T18:28:24.059Z,98268.16
2019-06-01T18:30:55.130Z,98268.16
2019-06-01T18:33:26.333Z,98274.42
2019-06-01T18:35:57.455Z,98279.59
2019-06-01T18:38:28.943Z,98284.99
2019-06-01T18:41:09.415Z,98283.07
2019-06-01T18:43:33.114Z,98282.44
2019-06-01T18:46:05.698Z,98288.88
2019-06-01T18:48:36.943Z,98280.88
2019-06-01T18:51:08.266Z,98277.08
2019-06-01T18:53:39.534Z,98277.25
2019-06-01T18:56:10.586Z,98279.08
2019-06-01T18:58:40.734Z,98283.25
2019-06-01T19:01:12.540Z,98280.98
2019-06-01T19:03:43.714Z,98285.11
2019-06-01T19:06:15.940Z,98283.63
2019-06-01T19:08:46.970Z,98284.77
2019-06-01T19:11:34.757Z,98281.02
2019-06-01T19:13:51.116Z,98278.45
2019-06-01T19:16:23.821Z,98287.10
2019-06-01T19:18:54.775Z,98288.80
2019-06-01T19:21:26.100Z,98285.37
2019-06-01T19:23:57.081Z,98286.63
2019-06-01T19:26:28.161Z,98290.90
2019-06-01T19:28:59.154Z,98294.99
2019-06-01T19:31:29.272Z,98294.58
2019-06-01T19:34:00.697Z,98297.23
2019-06-01T19:36:32.635Z,98300.72
2019-06-01T19:39:05.308Z,98300.87
2019-06-01T19:41:44.978Z,98307.69
2019-06-01T19:44:09.491Z,98309.37
2019-06-01T19:46:40.479Z,98316.19
2019-06-01T19:49:13.671Z,98313.44
2019-06-01T19:51:45.890Z,98316.87
2019-06-01T19:54:20.208Z,98315.54
2019-06-01T19:56:54.089Z,98315.18
2019-06-01T19:59:28.207Z,98320.45
2019-06-01T20:01:59.204Z,98321.30
2019-06-01T20:04:30.623Z,98321.48
2019-06-01T20:07:01.626Z,98316.58
2019-06-01T20:09:34.451Z,98317.41
2019-06-01T20:12:11.565Z,98318.02
2019-06-01T20:14:39.617Z,98326.71
2019-06-01T20:17:11.722Z,98317.48
2019-06-01T20:19:42.799Z,98317.48
2019-06-01T20:22:14.924Z,98326.64
2019-06-01T20:24:45.953Z,98326.64
2019-06-01T20:27:17.574Z,98327.52
2019-06-01T20:29:48.737Z,98327.29
2019-06-01T20:32:20.128Z,98334.59
2019-06-01T20:34:51.252Z,98334.59
2019-06-01T20:37:25.231Z,98335.20
2019-06-01T20:39:56.150Z,98339.03
2019-06-01T20:42:32.333Z,98341.97
2019-06-01T20:45:00.031Z,98341.97
2019-06-01T20:47:30.106Z,98339.09
2019-06-01T20:50:01.293Z,98335.25
2019-06-01T20:52:32.289Z,98342.77
2019-06-01T20:55:04.941Z,98338.30
2019-06-01T20:57:36.080Z,98339.00
2019-06-01T21:00:08.979Z,98342.50
2019-06-01T21:02:40.067Z,98341.14
2019-06-01T21:05:11.483Z,98347.96
2019-06-01T21:07:42.463Z,98347.00
2019-06-01T21:10:16.029Z,98352.50
2019-06-01T21:12:47.334Z,98348.52
2019-06-01T21:15:19.312Z,98344.15
2019-06-01T21:17:50.641Z,98342.16
2019-06-01T21:20:26.816Z,98344.09
2019-06-01T21:22:54.031Z,98342.51
2019-06-01T21:25:25.457Z,98343.81
2019-06-01T21:27:56.774Z,98346.39
2019-06-01T21:30:27.709Z,98351.12
2019-06-01T21:32:58.857Z,98354.22
2019-06-01T21:35:29.920Z,98349.52
2019-06-01T21:38:00.986Z,98361.11
2019-06-01T21:40:31.969Z,98354.45
2019-06-01T21:43:23.004Z,98350.30
2019-06-01T21:45:35.937Z,98350.85
2019-06-01T21:48:07.338Z,98345.23
2019-06-01T21:50:38.242Z,98351.67
2019-06-01T21:53:09.474Z,98349.41
2019-06-01T21:55:40.482Z,98354.17
2019-06-01T21:58:10.802Z,98356.03
2019-06-01T22:00:42.906Z,98356.94
2019-06-01T22:03:13.884Z,98349.56
2019-06-01T22:05:45.046Z,98353.81
2019-06-01T22:08:17.173Z,98350.66
2019-06-01T22:10:48.570Z,98353.73
2019-06-01T22:13:23.758Z,98350.41
2019-06-01T22:15:52.605Z,98347.69
2019-06-01T22:18:23.828Z,98348.77
2019-06-01T22:20:55.230Z,98346.00
2019-06-01T22:23:26.385Z,98354.61
2019-06-01T22:25:57.535Z,98354.91
2019-06-01T22:28:28.791Z,98354.37
2019-06-01T22:31:01.832Z,98352.64
2019-06-01T22:33:33.148Z,98351.83
2019-06-01T22:36:04.237Z,98362.95
2019-06-01T22:38:35.500Z,98358.29
2019-06-01T22:41:06.608Z,98358.80
2019-06-01T22:43:46.229Z,98351.77
2019-06-01T22:46:10.748Z,98355.73
2019-06-01T22:48:42.072Z,98346.31
2019-06-01T22:51:13.149Z,98349.64
2019-06-01T22:53:44.468Z,98346.16
2019-06-01T22:56:16.034Z,98349.92
2019-06-01T22:58:47.284Z,98345.06
2019-06-01T23:01:18.307Z,98346.88
2019-06-01T23:03:48.484Z,98342.02
2019-06-01T23:06:20.851Z,98344.55
2019-06-01T23:08:52.017Z,98343.08
2019-06-01T23:11:23.258Z,98332.57
2019-06-01T23:13:54.228Z,98338.58
2019-06-01T23:16:25.647Z,98336.16
2019-06-01T23:18:56.672Z,98334.75
2019-06-01T23:21:29.738Z,98331.92
2019-06-01T23:24:01.003Z,98328.84
2019-06-01T23:26:32.508Z,98328.36
2019-06-01T23:29:03.596Z,98325.17
2019-06-01T23:31:34.858Z,98329.69
2019-06-01T23:34:05.857Z,98335.62
2019-06-01T23:36:37.176Z,98333.84
2019-06-01T23:39:08.537Z,98333.09
2019-06-01T23:41:38.771Z,98330.84
2019-06-01T23:44:12.629Z,98335.14
2019-06-01T23:46:43.829Z,98333.19
2019-06-01T23:49:15.021Z,98327.08
2019-06-01T23:51:45.999Z,98324.33
2019-06-01T23:54:17.205Z,98315.42
2019-06-01T23:56:48.257Z,98323.31
2019-06-01T23:59:19.391Z,98322.84
